sensor_id;sensor_type;location;lat;lon;timestamp;P1;durP1;ratioP1;P2;durP2;ratioP2
75112;SDS011;63692;47.338;8.520;2024-02-28T05:10:29;34.45;;;19.50;;
75112;SDS011;63692;47.338;8.520;2024-02-28T05:12:55;32.55;;;18.85;;
75112;SDS011;63692;47.338;8.520;2024-02-28T05:15:20;31.38;;;19.20;;
75112;SDS011;63692;47.338;8.520;2024-02-28T05:17:46;34.85;;;19.00;;
75112;SDS011;63692;47.338;8.520;2024-02-28T05:30:29;30.77;;;17.98;;
75112;SDS011;63692;47.338;8.520;2024-02-28T06:43:10;25.27;;;14.40;;
75112;SDS011;63692;47.338;8.520;2024-02-28T06:45:36;22.85;;;13.70;;
75112;SDS011;63692;47.338;8.520;2024-02-28T06:48:05;25.60;;;14.77;;
75112;SDS011;63692;47.338;8.520;2024-02-28T06:50:33;24.48;;;14.32;;
75112;SDS011;63692;47.338;8.520;2024-02-28T06:55:40;27.83;;;14.77;;
75112;SDS011;63692;47.338;8.520;2024-02-28T06:58:23;25.60;;;15.63;;
75112;SDS011;63692;47.338;8.520;2024-02-28T07:00:54;24.48;;;14.30;;
75112;SDS011;63692;47.338;8.520;2024-02-28T10:45:21;28.60;;;16.98;;
75112;SDS011;63692;47.338;8.520;2024-02-28T10:47:50;27.85;;;16.35;;
75112;SDS011;63692;47.338;8.520;2024-02-28T10:57:40;29.77;;;16.50;;
75112;SDS011;63692;47.338;8.520;2024-02-28T11:09:58;28.10;;;15.93;;
75112;SDS011;63692;47.338;8.520;2024-02-28T11:12:32;31.75;;;16.98;;
75112;SDS011;63692;47.338;8.520;2024-02-28T11:17:26;29.08;;;15.60;;
75112;SDS011;63692;47.338;8.520;2024-02-28T11:19:54;29.27;;;16.75;;
75112;SDS011;63692;47.338;8.520;2024-02-28T11:22:20;27.45;;;16.63;;
75112;SDS011;63692;47.338;8.520;2024-02-28T11:24:48;34.83;;;17.17;;
75112;SDS011;63692;47.338;8.520;2024-02-28T11:27:15;29.98;;;16.70;;
75112;SDS011;63692;47.338;8.520;2024-02-28T11:29:41;29.80;;;16.55;;
75112;SDS011;63692;47.338;8.520;2024-02-28T11:32:07;28.13;;;16.90;;
75112;SDS011;63692;47.338;8.520;2024-02-28T11:34:35;34.40;;;18.13;;
75112;SDS011;63692;47.338;8.520;2024-02-28T11:37:01;31.35;;;16.80;;
75112;SDS011;63692;47.338;8.520;2024-02-28T11:39:27;28.92;;;17.40;;
75112;SDS011;63692;47.338;8.520;2024-02-28T11:41:54;28.45;;;16.25;;
75112;SDS011;63692;47.338;8.520;2024-02-28T11:44:20;30.10;;;17.02;;
75112;SDS011;63692;47.338;8.520;2024-02-28T11:46:46;29.25;;;17.45;;
75112;SDS011;63692;47.338;8.520;2024-02-28T11:49:15;31.67;;;17.50;;
75112;SDS011;63692;47.338;8.520;2024-02-28T11:51:41;33.08;;;17.20;;
75112;SDS011;63692;47.338;8.520;2024-02-28T11:54:08;29.90;;;17.20;;
75112;SDS011;63692;47.338;8.520;2024-02-28T11:56:37;32.08;;;18.08;;
75112;SDS011;63692;47.338;8.520;2024-02-28T11:59:03;32.05;;;18.00;;
75112;SDS011;63692;47.338;8.520;2024-02-28T12:01:37;29.63;;;17.05;;
75112;SDS011;63692;47.338;8.520;2024-02-28T12:06:31;36.75;;;17.02;;
75112;SDS011;63692;47.338;8.520;2024-02-28T12:09:01;30.23;;;17.48;;
75112;SDS011;63692;47.338;8.520;2024-02-28T12:11:28;29.85;;;16.38;;
75112;SDS011;63692;47.338;8.520;2024-02-28T12:13:55;29.17;;;16.40;;
75112;SDS011;63692;47.338;8.520;2024-02-28T12:18:49;28.00;;;16.25;;
75112;SDS011;63692;47.338;8.520;2024-02-28T12:23:42;31.70;;;17.13;;
75112;SDS011;63692;47.338;8.520;2024-02-28T12:26:08;28.15;;;15.13;;
75112;SDS011;63692;47.338;8.520;2024-02-28T12:28:33;31.52;;;16.23;;
75112;SDS011;63692;47.338;8.520;2024-02-28T12:30:59;27.17;;;15.75;;
75112;SDS011;63692;47.338;8.520;2024-02-28T12:33:25;27.10;;;16.08;;
75112;SDS011;63692;47.338;8.520;2024-02-28T12:35:50;28.45;;;16.00;;
75112;SDS011;63692;47.338;8.520;2024-02-28T12:38:16;28.95;;;16.67;;
75112;SDS011;63692;47.338;8.520;2024-02-28T12:40:42;31.05;;;16.42;;
75112;SDS011;63692;47.338;8.520;2024-02-28T12:43:07;32.22;;;17.15;;
75112;SDS011;63692;47.338;8.520;2024-02-28T12:45:33;28.55;;;16.45;;
75112;SDS011;63692;47.338;8.520;2024-02-28T12:55:26;30.50;;;17.10;;
75112;SDS011;63692;47.338;8.520;2024-02-28T12:57:52;26.35;;;15.93;;
75112;SDS011;63692;47.338;8.520;2024-02-28T13:00:18;31.13;;;17.38;;
75112;SDS011;63692;47.338;8.520;2024-02-28T13:02:44;28.77;;;16.65;;
75112;SDS011;63692;47.338;8.520;2024-02-28T13:05:11;28.40;;;16.95;;
75112;SDS011;63692;47.338;8.520;2024-02-28T13:07:38;29.75;;;16.83;;
75112;SDS011;63692;47.338;8.520;2024-02-28T13:10:04;29.95;;;17.10;;
75112;SDS011;63692;47.338;8.520;2024-02-28T13:12:30;28.45;;;16.52;;
75112;SDS011;63692;47.338;8.520;2024-02-28T13:14:57;28.63;;;16.75;;
75112;SDS011;63692;47.338;8.520;2024-02-28T13:17:23;30.98;;;16.80;;
75112;SDS011;63692;47.338;8.520;2024-02-28T13:19:48;31.60;;;17.17;;
75112;SDS011;63692;47.338;8.520;2024-02-28T13:22:14;27.05;;;16.77;;
75112;SDS011;63692;47.338;8.520;2024-02-28T13:24:40;29.20;;;16.30;;
75112;SDS011;63692;47.338;8.520;2024-02-28T13:27:05;31.52;;;17.60;;
75112;SDS011;63692;47.338;8.520;2024-02-28T13:29:31;31.52;;;17.60;;
75112;SDS011;63692;47.338;8.520;2024-02-28T13:31:57;29.33;;;16.38;;
75112;SDS011;63692;47.338;8.520;2024-02-28T13:34:23;30.38;;;17.48;;
75112;SDS011;63692;47.338;8.520;2024-02-28T13:36:49;26.58;;;16.23;;
75112;SDS011;63692;47.338;8.520;2024-02-28T13:39:15;32.28;;;17.70;;
75112;SDS011;63692;47.338;8.520;2024-02-28T13:41:41;31.38;;;17.90;;
75112;SDS011;63692;47.338;8.520;2024-02-28T13:44:07;29.17;;;17.60;;
75112;SDS011;63692;47.338;8.520;2024-02-28T13:46:34;29.00;;;16.90;;
75112;SDS011;63692;47.338;8.520;2024-02-28T13:49:00;29.38;;;16.67;;
75112;SDS011;63692;47.338;8.520;2024-02-28T13:51:25;30.55;;;17.33;;
75112;SDS011;63692;47.338;8.520;2024-02-28T13:53:51;29.10;;;17.10;;
75112;SDS011;63692;47.338;8.520;2024-02-28T13:56:19;30.98;;;16.23;;
75112;SDS011;63692;47.338;8.520;2024-02-28T13:58:44;29.70;;;17.00;;
75112;SDS011;63692;47.338;8.520;2024-02-28T14:01:11;29.73;;;17.38;;
75112;SDS011;63692;47.338;8.520;2024-02-28T14:03:37;30.00;;;17.38;;
75112;SDS011;63692;47.338;8.520;2024-02-28T14:06:03;31.95;;;17.33;;
75112;SDS011;63692;47.338;8.520;2024-02-28T14:08:29;29.00;;;16.83;;
75112;SDS011;63692;47.338;8.520;2024-02-28T14:10:54;28.48;;;17.98;;
75112;SDS011;63692;47.338;8.520;2024-02-28T14:13:20;28.38;;;17.30;;
75112;SDS011;63692;47.338;8.520;2024-02-28T14:15:46;27.38;;;16.27;;
75112;SDS011;63692;47.338;8.520;2024-02-28T14:18:12;30.45;;;17.58;;
75112;SDS011;63692;47.338;8.520;2024-02-28T14:20:38;31.85;;;17.90;;
75112;SDS011;63692;47.338;8.520;2024-02-28T14:23:06;31.42;;;17.23;;
75112;SDS011;63692;47.338;8.520;2024-02-28T14:25:32;30.17;;;17.58;;
75112;SDS011;63692;47.338;8.520;2024-02-28T14:27:58;31.98;;;17.67;;
75112;SDS011;63692;47.338;8.520;2024-02-28T14:30:24;28.85;;;16.90;;
75112;SDS011;63692;47.338;8.520;2024-02-28T14:32:49;31.98;;;17.75;;
75112;SDS011;63692;47.338;8.520;2024-02-28T14:35:15;29.40;;;17.38;;
75112;SDS011;63692;47.338;8.520;2024-02-28T14:37:41;29.17;;;17.23;;
75112;SDS011;63692;47.338;8.520;2024-02-28T14:40:07;29.90;;;17.00;;
75112;SDS011;63692;47.338;8.520;2024-02-28T14:42:37;30.15;;;17.50;;
75112;SDS011;63692;47.338;8.520;2024-02-28T14:45:07;29.17;;;17.40;;
75112;SDS011;63692;47.338;8.520;2024-02-28T14:47:33;28.38;;;17.27;;
75112;SDS011;63692;47.338;8.520;2024-02-28T14:50:01;32.22;;;16.80;;
75112;SDS011;63692;47.338;8.520;2024-02-28T14:52:28;31.58;;;18.55;;
75112;SDS011;63692;47.338;8.520;2024-02-28T14:54:53;30.73;;;17.95;;
75112;SDS011;63692;47.338;8.520;2024-02-28T14:57:19;29.45;;;17.83;;
75112;SDS011;63692;47.338;8.520;2024-02-28T14:59:45;29.58;;;17.30;;
75112;SDS011;63692;47.338;8.520;2024-02-28T15:02:11;33.10;;;18.90;;
75112;SDS011;63692;47.338;8.520;2024-02-28T15:04:37;31.17;;;18.15;;
75112;SDS011;63692;47.338;8.520;2024-02-28T15:07:03;28.25;;;16.38;;
75112;SDS011;63692;47.338;8.520;2024-02-28T15:09:29;30.65;;;16.27;;
75112;SDS011;63692;47.338;8.520;2024-02-28T15:11:55;30.50;;;18.15;;
75112;SDS011;63692;47.338;8.520;2024-02-28T15:14:21;31.88;;;17.85;;
75112;SDS011;63692;47.338;8.520;2024-02-28T15:16:48;28.05;;;16.77;;
75112;SDS011;63692;47.338;8.520;2024-02-28T15:19:14;28.88;;;17.35;;
75112;SDS011;63692;47.338;8.520;2024-02-28T15:21:40;29.88;;;17.60;;
75112;SDS011;63692;47.338;8.520;2024-02-28T15:24:05;36.30;;;21.40;;
75112;SDS011;63692;47.338;8.520;2024-02-28T15:26:31;32.90;;;18.52;;
75112;SDS011;63692;47.338;8.520;2024-02-28T15:28:57;30.52;;;18.23;;
75112;SDS011;63692;47.338;8.520;2024-02-28T15:31:22;30.48;;;18.17;;
75112;SDS011;63692;47.338;8.520;2024-02-28T15:33:48;31.00;;;18.38;;
75112;SDS011;63692;47.338;8.520;2024-02-28T15:36:14;31.42;;;17.92;;
75112;SDS011;63692;47.338;8.520;2024-02-28T15:38:40;31.67;;;18.33;;
75112;SDS011;63692;47.338;8.520;2024-02-28T15:41:05;32.03;;;16.65;;
75112;SDS011;63692;47.338;8.520;2024-02-28T15:43:31;32.17;;;18.63;;
75112;SDS011;63692;47.338;8.520;2024-02-28T15:45:58;32.85;;;18.60;;
75112;SDS011;63692;47.338;8.520;2024-02-28T15:48:24;31.88;;;18.20;;
75112;SDS011;63692;47.338;8.520;2024-02-28T15:50:49;33.22;;;18.15;;
75112;SDS011;63692;47.338;8.520;2024-02-28T15:53:17;30.92;;;18.42;;
75112;SDS011;63692;47.338;8.520;2024-02-28T15:55:42;30.70;;;18.42;;
75112;SDS011;63692;47.338;8.520;2024-02-28T15:58:08;32.67;;;19.67;;
75112;SDS011;63692;47.338;8.520;2024-02-28T16:00:33;36.85;;;19.25;;
75112;SDS011;63692;47.338;8.520;2024-02-28T16:02:59;32.60;;;18.67;;
75112;SDS011;63692;47.338;8.520;2024-02-28T16:05:25;32.35;;;18.02;;
75112;SDS011;63692;47.338;8.520;2024-02-28T16:07:53;31.15;;;18.98;;
75112;SDS011;63692;47.338;8.520;2024-02-28T16:10:19;32.67;;;18.58;;
75112;SDS011;63692;47.338;8.520;2024-02-28T16:12:46;37.40;;;19.50;;
75112;SDS011;63692;47.338;8.520;2024-02-28T16:15:12;32.65;;;18.73;;
75112;SDS011;63692;47.338;8.520;2024-02-28T16:17:38;34.03;;;19.55;;
75112;SDS011;63692;47.338;8.520;2024-02-28T16:20:04;30.98;;;18.10;;
75112;SDS011;63692;47.338;8.520;2024-02-28T16:22:30;33.65;;;18.50;;
75112;SDS011;63692;47.338;8.520;2024-02-28T16:24:56;32.10;;;18.23;;
75112;SDS011;63692;47.338;8.520;2024-02-28T16:27:21;34.42;;;19.15;;
75112;SDS011;63692;47.338;8.520;2024-02-28T16:29:47;31.90;;;18.55;;
75112;SDS011;63692;47.338;8.520;2024-02-28T16:32:13;31.85;;;18.70;;
75112;SDS011;63692;47.338;8.520;2024-02-28T16:34:39;29.20;;;17.92;;
75112;SDS011;63692;47.338;8.520;2024-02-28T16:37:05;31.73;;;18.17;;
75112;SDS011;63692;47.338;8.520;2024-02-28T16:39:34;32.25;;;18.27;;
75112;SDS011;63692;47.338;8.520;2024-02-28T16:42:00;28.15;;;17.13;;
75112;SDS011;63692;47.338;8.520;2024-02-28T16:44:25;31.42;;;18.58;;
75112;SDS011;63692;47.338;8.520;2024-02-28T16:46:51;29.10;;;16.90;;
75112;SDS011;63692;47.338;8.520;2024-02-28T16:49:18;32.40;;;16.45;;
75112;SDS011;63692;47.338;8.520;2024-02-28T16:51:44;28.33;;;17.23;;
75112;SDS011;63692;47.338;8.520;2024-02-28T16:54:10;32.72;;;18.02;;
75112;SDS011;63692;47.338;8.520;2024-02-28T16:56:38;29.48;;;17.50;;
75112;SDS011;63692;47.338;8.520;2024-02-28T16:59:04;31.20;;;17.65;;
75112;SDS011;63692;47.338;8.520;2024-02-28T17:01:29;31.80;;;17.70;;
75112;SDS011;63692;47.338;8.520;2024-02-28T17:03:55;34.08;;;17.27;;
75112;SDS011;63692;47.338;8.520;2024-02-28T17:06:21;30.20;;;17.33;;
75112;SDS011;63692;47.338;8.520;2024-02-28T17:08:46;35.45;;;18.65;;
75112;SDS011;63692;47.338;8.520;2024-02-28T17:11:12;32.40;;;18.88;;
75112;SDS011;63692;47.338;8.520;2024-02-28T17:13:38;28.70;;;18.02;;
75112;SDS011;63692;47.338;8.520;2024-02-28T17:16:04;33.88;;;19.02;;
75112;SDS011;63692;47.338;8.520;2024-02-28T17:18:30;34.63;;;18.90;;
75112;SDS011;63692;47.338;8.520;2024-02-28T17:20:57;33.97;;;18.02;;
75112;SDS011;63692;47.338;8.520;2024-02-28T17:23:26;30.65;;;16.67;;
75112;SDS011;63692;47.338;8.520;2024-02-28T17:25:52;30.75;;;17.42;;
75112;SDS011;63692;47.338;8.520;2024-02-28T17:28:18;30.15;;;18.08;;
75112;SDS011;63692;47.338;8.520;2024-02-28T17:30:44;30.50;;;17.05;;
75112;SDS011;63692;47.338;8.520;2024-02-28T17:33:10;29.27;;;17.17;;
75112;SDS011;63692;47.338;8.520;2024-02-28T17:35:35;29.48;;;17.63;;
75112;SDS011;63692;47.338;8.520;2024-02-28T17:38:01;31.65;;;16.50;;
75112;SDS011;63692;47.338;8.520;2024-02-28T17:40:27;28.92;;;17.60;;
75112;SDS011;63692;47.338;8.520;2024-02-28T17:42:52;35.10;;;18.08;;
75112;SDS011;63692;47.338;8.520;2024-02-28T17:45:18;36.80;;;19.30;;
75112;SDS011;63692;47.338;8.520;2024-02-28T17:47:47;30.35;;;18.58;;
75112;SDS011;63692;47.338;8.520;2024-02-28T17:50:12;30.60;;;16.92;;
75112;SDS011;63692;47.338;8.520;2024-02-28T17:52:40;31.60;;;17.52;;
75112;SDS011;63692;47.338;8.520;2024-02-28T17:55:07;33.35;;;19.48;;
75112;SDS011;63692;47.338;8.520;2024-02-28T17:57:36;29.40;;;17.42;;
75112;SDS011;63692;47.338;8.520;2024-02-28T18:00:03;31.98;;;18.25;;
75112;SDS011;63692;47.338;8.520;2024-02-28T18:02:46;31.15;;;17.00;;
75112;SDS011;63692;47.338;8.520;2024-02-28T18:05:12;30.25;;;17.90;;
75112;SDS011;63692;47.338;8.520;2024-02-28T18:07:38;29.45;;;17.45;;
75112;SDS011;63692;47.338;8.520;2024-02-28T18:10:06;29.27;;;17.60;;
75112;SDS011;63692;47.338;8.520;2024-02-28T18:12:34;31.85;;;17.45;;
75112;SDS011;63692;47.338;8.520;2024-02-28T18:14:59;32.35;;;17.38;;
75112;SDS011;63692;47.338;8.520;2024-02-28T18:17:25;29.75;;;17.17;;
75112;SDS011;63692;47.338;8.520;2024-02-28T18:19:51;29.90;;;17.98;;
75112;SDS011;63692;47.338;8.520;2024-02-28T18:22:16;31.33;;;17.65;;
75112;SDS011;63692;47.338;8.520;2024-02-28T18:24:42;33.72;;;17.88;;
75112;SDS011;63692;47.338;8.520;2024-02-28T18:27:07;29.52;;;16.92;;
75112;SDS011;63692;47.338;8.520;2024-02-28T18:29:36;27.70;;;16.75;;
75112;SDS011;63692;47.338;8.520;2024-02-28T18:32:03;29.90;;;17.05;;
75112;SDS011;63692;47.338;8.520;2024-02-28T18:34:29;28.73;;;16.67;;
75112;SDS011;63692;47.338;8.520;2024-02-28T18:36:58;31.60;;;17.30;;
75112;SDS011;63692;47.338;8.520;2024-02-28T18:39:27;29.88;;;17.13;;
75112;SDS011;63692;47.338;8.520;2024-02-28T18:41:53;30.85;;;17.45;;
75112;SDS011;63692;47.338;8.520;2024-02-28T18:44:19;28.13;;;16.38;;
75112;SDS011;63692;47.338;8.520;2024-02-28T18:46:53;30.60;;;17.40;;
75112;SDS011;63692;47.338;8.520;2024-02-28T18:49:21;30.00;;;17.65;;
75112;SDS011;63692;47.338;8.520;2024-02-28T18:51:47;30.30;;;17.90;;
75112;SDS011;63692;47.338;8.520;2024-02-28T18:54:12;32.88;;;18.73;;
75112;SDS011;63692;47.338;8.520;2024-02-28T18:56:38;33.15;;;18.42;;
75112;SDS011;63692;47.338;8.520;2024-02-28T18:59:04;29.98;;;17.00;;
75112;SDS011;63692;47.338;8.520;2024-02-28T19:01:30;29.08;;;17.08;;
75112;SDS011;63692;47.338;8.520;2024-02-28T19:03:56;31.10;;;18.27;;
75112;SDS011;63692;47.338;8.520;2024-02-28T19:06:22;30.92;;;17.88;;
75112;SDS011;63692;47.338;8.520;2024-02-28T19:08:49;28.90;;;17.10;;
75112;SDS011;63692;47.338;8.520;2024-02-28T19:13:45;31.05;;;17.02;;
75112;SDS011;63692;47.338;8.520;2024-02-28T19:16:10;30.58;;;16.25;;
75112;SDS011;63692;47.338;8.520;2024-02-28T19:18:36;31.40;;;17.40;;
75112;SDS011;63692;47.338;8.520;2024-02-28T19:21:03;29.40;;;17.65;;
75112;SDS011;63692;47.338;8.520;2024-02-28T19:25:57;32.83;;;17.73;;
75112;SDS011;63692;47.338;8.520;2024-02-28T19:28:25;32.28;;;18.33;;
75112;SDS011;63692;47.338;8.520;2024-02-28T19:30:54;32.08;;;17.90;;
75112;SDS011;63692;47.338;8.520;2024-02-28T19:33:20;31.17;;;17.63;;
75112;SDS011;63692;47.338;8.520;2024-02-28T19:35:47;32.17;;;18.02;;
75112;SDS011;63692;47.338;8.520;2024-02-28T19:38:12;30.30;;;17.17;;
75112;SDS011;63692;47.338;8.520;2024-02-28T19:40:38;29.42;;;16.98;;
75112;SDS011;63692;47.338;8.520;2024-02-28T19:43:04;32.88;;;18.27;;
75112;SDS011;63692;47.338;8.520;2024-02-28T19:45:31;31.92;;;18.40;;
75112;SDS011;63692;47.338;8.520;2024-02-28T19:47:56;33.65;;;17.92;;
75112;SDS011;63692;47.338;8.520;2024-02-28T19:50:22;35.90;;;19.33;;
75112;SDS011;63692;47.338;8.520;2024-02-28T19:52:47;33.92;;;19.17;;
75112;SDS011;63692;47.338;8.520;2024-02-28T19:57:45;30.38;;;17.77;;
75112;SDS011;63692;47.338;8.520;2024-02-28T20:00:26;32.40;;;17.90;;
75112;SDS011;63692;47.338;8.520;2024-02-28T20:10:19;36.03;;;19.63;;
75112;SDS011;63692;47.338;8.520;2024-02-28T20:12:46;41.92;;;21.55;;
75112;SDS011;63692;47.338;8.520;2024-02-28T20:15:12;34.90;;;20.48;;
75112;SDS011;63692;47.338;8.520;2024-02-28T20:17:38;33.35;;;19.00;;
75112;SDS011;63692;47.338;8.520;2024-02-28T20:20:04;39.60;;;21.90;;
75112;SDS011;63692;47.338;8.520;2024-02-28T20:22:31;35.97;;;20.30;;
75112;SDS011;63692;47.338;8.520;2024-02-28T20:24:57;34.42;;;19.10;;
75112;SDS011;63692;47.338;8.520;2024-02-28T20:27:23;34.17;;;20.42;;
75112;SDS011;63692;47.338;8.520;2024-02-28T20:29:49;36.88;;;19.60;;
75112;SDS011;63692;47.338;8.520;2024-02-28T20:32:14;33.45;;;18.98;;
75112;SDS011;63692;47.338;8.520;2024-02-28T20:34:40;36.22;;;20.35;;
75112;SDS011;63692;47.338;8.520;2024-02-28T20:37:05;37.03;;;19.85;;
75112;SDS011;63692;47.338;8.520;2024-02-28T20:39:31;35.47;;;19.77;;
75112;SDS011;63692;47.338;8.520;2024-02-28T20:41:57;32.92;;;19.73;;
75112;SDS011;63692;47.338;8.520;2024-02-28T20:44:22;35.63;;;19.50;;
75112;SDS011;63692;47.338;8.520;2024-02-28T20:46:49;34.45;;;19.08;;
75112;SDS011;63692;47.338;8.520;2024-02-28T20:49:15;34.20;;;19.73;;
75112;SDS011;63692;47.338;8.520;2024-02-28T20:51:40;32.25;;;19.00;;
75112;SDS011;63692;47.338;8.520;2024-02-28T20:54:06;36.28;;;20.20;;
75112;SDS011;63692;47.338;8.520;2024-02-28T20:56:32;31.88;;;18.58;;
75112;SDS011;63692;47.338;8.520;2024-02-28T20:58:58;35.03;;;19.48;;
75112;SDS011;63692;47.338;8.520;2024-02-28T21:01:24;33.85;;;19.05;;
